createdAt,value
2018-05-27T00:00:30.029Z,15.67
2018-05-27T00:03:01.279Z,17.07
2018-05-27T00:05:33.231Z,14.67
2018-05-27T00:08:04.494Z,15.90
2018-05-27T00:10:36.497Z,15.23
2018-05-27T00:13:07.662Z,14.97
2018-05-27T00:15:38.865Z,15.70
2018-05-27T00:18:10.079Z,16.90
2018-05-27T00:20:41.999Z,16.20
2018-05-27T00:23:13.205Z,16.60
2018-05-27T00:25:45.198Z,18.60
2018-05-27T00:28:16.622Z,15.67
2018-05-27T00:30:47.818Z,14.47
2018-05-27T00:33:19.007Z,16.07
2018-05-27T00:35:50.176Z,16.93
2018-05-27T00:38:21.365Z,15.80
2018-05-27T00:40:53.284Z,15.37
2018-05-27T00:43:24.491Z,17.10
2018-05-27T00:45:55.687Z,16.80
2018-05-27T00:48:27.907Z,16.03
2018-05-27T00:50:59.095Z,16.40
2018-05-27T00:53:42.588Z,16.23
2018-05-27T00:56:13.771Z,16.17
2018-05-27T00:58:44.979Z,17.00
2018-05-27T01:01:16.894Z,16.00
2018-05-27T01:03:48.986Z,16.53
2018-05-27T01:06:20.793Z,15.83
2018-05-27T01:08:52.251Z,18.17
2018-05-27T01:11:23.431Z,16.27
2018-05-27T01:13:55.366Z,15.83
2018-05-27T01:16:26.545Z,16.27
2018-05-27T01:18:58.612Z,18.03
2018-05-27T01:21:29.790Z,16.43
2018-05-27T01:24:01.407Z,16.37
2018-05-27T01:26:32.863Z,16.60
2018-05-27T01:29:05.243Z,15.63
2018-05-27T01:31:36.403Z,16.80
2018-05-27T01:34:07.619Z,16.93
2018-05-27T01:36:38.765Z,16.27
2018-05-27T01:39:10.000Z,17.40
2018-05-27T01:41:41.168Z,16.60
2018-05-27T01:44:12.690Z,17.73
2018-05-27T01:46:43.906Z,16.77
2018-05-27T01:49:18.735Z,16.80
2018-05-27T01:51:50.625Z,17.87
2018-05-27T01:54:21.975Z,16.77
2018-05-27T01:56:53.137Z,16.67
2018-05-27T01:59:24.332Z,16.17
2018-05-27T02:01:56.306Z,16.53
2018-05-27T02:04:27.499Z,15.70
2018-05-27T02:06:58.679Z,14.80
2018-05-27T02:09:30.880Z,16.33
2018-05-27T02:12:02.056Z,16.07
2018-05-27T02:14:34.356Z,16.00
2018-05-27T02:17:05.575Z,16.50
2018-05-27T02:19:36.771Z,17.40
2018-05-27T02:22:07.997Z,16.73
2018-05-27T02:24:39.936Z,17.90
2018-05-27T02:27:11.088Z,17.23
2018-05-27T02:29:44.871Z,18.63
2018-05-27T02:32:16.051Z,18.37
2018-05-27T02:34:47.232Z,17.60
2018-05-27T02:37:18.480Z,18.10
2018-05-27T02:39:49.683Z,19.17
2018-05-27T02:42:21.594Z,18.30
2018-05-27T02:44:52.796Z,17.90
2018-05-27T02:47:24.016Z,18.17
2018-05-27T02:49:56.015Z,19.40
2018-05-27T02:52:27.455Z,17.47
2018-05-27T02:54:58.628Z,17.30
2018-05-27T02:57:29.840Z,17.60
2018-05-27T03:00:01.029Z,18.27
2018-05-27T03:02:32.226Z,18.03
2018-05-27T03:05:03.407Z,19.87
2018-05-27T03:07:34.607Z,18.73
2018-05-27T03:10:05.826Z,18.03
2018-05-27T03:12:37.754Z,20.93
2018-05-27T03:15:08.938Z,18.57
2018-05-27T03:17:40.882Z,20.20
2018-05-27T03:20:12.074Z,19.43
2018-05-27T03:22:43.272Z,18.67
2018-05-27T03:25:14.430Z,20.63
2018-05-27T03:27:46.393Z,18.07
2018-05-27T03:30:18.389Z,19.90
2018-05-27T03:32:49.578Z,18.73
2018-05-27T03:35:20.765Z,18.77
2018-05-27T03:37:51.958Z,19.23
2018-05-27T03:40:24.695Z,19.53
2018-05-27T03:42:55.908Z,20.07
2018-05-27T03:45:27.814Z,18.87
2018-05-27T03:47:59.018Z,20.13
2018-05-27T03:50:32.620Z,20.37
2018-05-27T03:53:03.809Z,20.00
2018-05-27T03:55:34.976Z,19.17
2018-05-27T03:58:06.173Z,19.83
2018-05-27T04:00:37.334Z,18.47
2018-05-27T04:03:08.523Z,19.30
2018-05-27T04:05:52.948Z,19.40
2018-05-27T04:08:33.212Z,20.17
2018-05-27T04:11:04.506Z,19.73
2018-05-27T04:13:35.686Z,19.13
2018-05-27T04:16:06.970Z,20.43
2018-05-27T04:18:38.880Z,21.13
2018-05-27T04:21:10.105Z,23.40
2018-05-27T04:23:41.263Z,19.77
2018-05-27T04:26:12.436Z,20.67
2018-05-27T04:28:43.619Z,20.80
2018-05-27T04:31:15.384Z,20.40
2018-05-27T04:33:46.589Z,20.37
2018-05-27T04:36:18.700Z,19.77
2018-05-27T04:38:49.859Z,19.67
2018-05-27T04:41:21.063Z,19.97
2018-05-27T04:43:52.258Z,20.90
2018-05-27T04:46:24.965Z,20.40
2018-05-27T04:48:56.879Z,19.30
2018-05-27T04:51:29.555Z,20.97
2018-05-27T04:54:00.722Z,19.33
2018-05-27T04:56:31.916Z,19.97
2018-05-27T04:59:03.111Z,19.50
2018-05-27T05:01:34.291Z,21.80
2018-05-27T05:04:06.748Z,19.13
2018-05-27T05:06:39.411Z,20.10
2018-05-27T05:09:10.626Z,19.77
2018-05-27T05:11:41.826Z,20.50
2018-05-27T05:14:13.751Z,18.90
2018-05-27T05:16:44.945Z,18.97
2018-05-27T05:19:17.243Z,19.70
2018-05-27T05:21:48.460Z,19.87
2018-05-27T05:24:19.657Z,19.90
2018-05-27T05:26:50.839Z,19.47
2018-05-27T05:29:22.037Z,20.97
2018-05-27T05:31:54.562Z,20.80
2018-05-27T05:34:25.788Z,21.80
2018-05-27T05:36:57.814Z,19.90
2018-05-27T05:39:29.016Z,19.63
2018-05-27T05:42:00.240Z,19.00
2018-05-27T05:44:31.433Z,19.87
2018-05-27T05:47:02.595Z,20.40
2018-05-27T05:49:33.811Z,20.57
2018-05-27T05:52:06.622Z,19.40
2018-05-27T05:54:37.927Z,22.50
2018-05-27T05:57:09.140Z,18.40
2018-05-27T05:59:41.131Z,19.33
2018-05-27T06:02:12.671Z,20.60
2018-05-27T06:04:43.836Z,22.67
2018-05-27T06:07:15.029Z,19.30
2018-05-27T06:09:47.334Z,21.37
2018-05-27T06:12:18.543Z,25.67
2018-05-27T06:14:50.878Z,20.17
2018-05-27T06:17:22.111Z,20.33
2018-05-27T06:19:53.329Z,20.93
2018-05-27T06:22:24.519Z,21.00
2018-05-27T06:24:58.378Z,21.70
2018-05-27T06:27:29.551Z,22.97
2018-05-27T06:30:00.752Z,20.40
2018-05-27T06:32:32.035Z,20.43
2018-05-27T06:35:03.234Z,21.27
2018-05-27T06:37:35.175Z,20.17
2018-05-27T06:40:07.160Z,21.23
2018-05-27T06:42:38.549Z,21.27
2018-05-27T06:45:09.728Z,18.93
2018-05-27T06:47:41.659Z,20.30
2018-05-27T06:50:12.818Z,18.93
2018-05-27T06:52:44.141Z,19.10
2018-05-27T06:55:15.334Z,20.20
2018-05-27T06:57:47.601Z,23.00
2018-05-27T07:00:19.582Z,20.33
2018-05-27T07:02:51.050Z,19.70
2018-05-27T07:05:22.208Z,22.07
2018-05-27T07:07:53.446Z,20.67
2018-05-27T07:10:24.643Z,20.67
2018-05-27T07:12:57.679Z,19.40
2018-05-27T07:15:30.759Z,20.07
2018-05-27T07:18:02.199Z,18.70
2018-05-27T07:20:33.381Z,19.57
2018-05-27T07:23:04.601Z,21.13
2018-05-27T07:25:35.757Z,19.33
2018-05-27T07:28:07.992Z,21.93
2018-05-27T07:30:39.174Z,18.10
2018-05-27T07:33:10.782Z,19.70
2018-05-27T07:35:41.981Z,20.90
2018-05-27T07:38:14.682Z,17.17
2018-05-27T07:40:46.695Z,17.13
2018-05-27T07:43:17.824Z,16.30
2018-05-27T07:45:49.051Z,18.17
2018-05-27T07:48:20.272Z,16.57
2018-05-27T07:50:52.218Z,15.67
2018-05-27T07:53:23.610Z,16.47
2018-05-27T07:55:54.825Z,19.13
2018-05-27T07:58:26.813Z,16.63
2018-05-27T08:00:59.594Z,14.63
2018-05-27T08:03:30.812Z,16.13
2018-05-27T08:06:02.755Z,15.43
2018-05-27T08:08:33.918Z,14.97
2018-05-27T08:11:05.887Z,14.83
2018-05-27T08:13:37.175Z,14.37
2018-05-27T08:16:08.424Z,13.93
2018-05-27T08:18:39.648Z,13.40
2018-05-27T08:21:10.879Z,13.07
2018-05-27T08:23:42.590Z,14.03
2018-05-27T08:26:15.246Z,14.30
2018-05-27T08:28:46.457Z,16.40
2018-05-27T08:31:17.641Z,14.10
2018-05-27T08:33:49.891Z,13.57
2018-05-27T08:36:21.114Z,14.27
2018-05-27T08:38:52.308Z,13.63
2018-05-27T08:41:24.254Z,13.00
2018-05-27T08:43:55.471Z,14.23
2018-05-27T08:46:26.708Z,12.93
2018-05-27T08:48:57.959Z,12.03
2018-05-27T08:51:29.498Z,13.10
2018-05-27T08:54:01.050Z,13.20
2018-05-27T08:56:32.263Z,14.30
2018-05-27T08:59:04.228Z,12.00
2018-05-27T09:01:36.194Z,13.37
2018-05-27T09:04:08.171Z,11.50
2018-05-27T09:06:39.417Z,12.57
2018-05-27T09:09:10.898Z,13.20
2018-05-27T09:11:42.155Z,12.23
2018-05-27T09:14:14.185Z,11.83
2018-05-27T09:16:45.501Z,12.60
2018-05-27T09:19:17.421Z,12.73
2018-05-27T09:21:48.653Z,11.53
2018-05-27T09:24:20.054Z,10.10
2018-05-27T09:26:52.346Z,9.43
2018-05-27T09:29:23.524Z,11.90
2018-05-27T09:31:54.773Z,9.67
2018-05-27T09:34:25.970Z,9.80
2018-05-27T09:36:57.165Z,10.23
2018-05-27T09:39:28.359Z,10.90
2018-05-27T09:41:59.557Z,9.90
2018-05-27T09:44:31.543Z,10.00
2018-05-27T09:47:02.777Z,8.73
2018-05-27T09:49:34.734Z,9.00
2018-05-27T09:52:05.974Z,11.60
2018-05-27T09:54:37.248Z,8.93
2018-05-27T09:57:08.453Z,8.83
2018-05-27T09:59:40.497Z,8.30
2018-05-27T10:02:11.788Z,8.97
2018-05-27T10:04:43.737Z,9.03
2018-05-27T10:07:15.678Z,9.10
2018-05-27T10:09:46.889Z,8.43
2018-05-27T10:12:18.097Z,8.40
2018-05-27T10:14:50.062Z,7.83
2018-05-27T10:17:22.410Z,8.37
2018-05-27T10:19:53.613Z,7.23
2018-05-27T10:22:24.844Z,7.47
2018-05-27T10:24:56.046Z,10.00
2018-05-27T10:27:27.294Z,8.57
2018-05-27T10:29:58.515Z,9.90
2018-05-27T10:32:29.727Z,9.87
2018-05-27T10:35:00.965Z,8.23
2018-05-27T10:37:32.185Z,7.90
2018-05-27T10:40:04.126Z,7.87
2018-05-27T10:42:35.342Z,8.70
2018-05-27T10:45:06.611Z,9.80
2018-05-27T10:47:38.077Z,8.43
2018-05-27T10:50:10.057Z,12.17
2018-05-27T10:52:42.008Z,10.00
2018-05-27T10:55:14.001Z,10.70
2018-05-27T10:57:45.199Z,9.37
2018-05-27T11:00:16.374Z,10.10
2018-05-27T11:02:47.586Z,9.93
2018-05-27T11:05:18.755Z,8.23
2018-05-27T11:07:50.115Z,9.67
2018-05-27T11:10:21.357Z,8.90
2018-05-27T11:12:52.577Z,8.60
2018-05-27T11:15:23.851Z,8.17
2018-05-27T11:17:55.058Z,8.90
2018-05-27T11:20:26.237Z,9.07
2018-05-27T11:22:57.836Z,9.03
2018-05-27T11:25:29.014Z,8.90
2018-05-27T11:28:00.229Z,8.67
2018-05-27T11:30:31.726Z,8.67
2018-05-27T11:33:02.915Z,9.73
2018-05-27T11:35:35.827Z,8.33
2018-05-27T11:38:07.036Z,8.87
2018-05-27T11:40:38.255Z,8.60
2018-05-27T11:43:09.482Z,8.10
2018-05-27T11:45:40.693Z,8.80
2018-05-27T11:48:11.888Z,8.70
2018-05-27T11:50:43.087Z,8.67
2018-05-27T11:53:15.035Z,8.57
2018-05-27T11:55:46.352Z,8.50
2018-05-27T11:58:17.538Z,8.47
2018-05-27T12:00:49.599Z,8.13
2018-05-27T12:03:21.510Z,9.50
2018-05-27T12:05:52.947Z,9.43
2018-05-27T12:08:24.870Z,8.33
2018-05-27T12:10:56.870Z,8.80
2018-05-27T12:13:28.067Z,8.83
2018-05-27T12:15:59.393Z,11.20
2018-05-27T12:18:30.578Z,8.27
2018-05-27T12:21:02.541Z,8.87
2018-05-27T12:23:33.729Z,8.97
2018-05-27T12:26:04.940Z,11.83
2018-05-27T12:28:36.187Z,9.73
2018-05-27T12:31:07.402Z,9.50
2018-05-27T12:33:38.673Z,10.57
2018-05-27T12:36:09.996Z,12.27
2018-05-27T12:38:41.241Z,16.00
2018-05-27T12:41:12.484Z,12.80
2018-05-27T12:43:43.745Z,8.80
2018-05-27T12:46:14.973Z,10.60
2018-05-27T12:48:46.886Z,8.57
2018-05-27T12:51:18.116Z,9.73
2018-05-27T12:53:49.326Z,7.97
2018-05-27T12:56:21.384Z,7.03
2018-05-27T12:58:53.411Z,6.47
2018-05-27T13:01:24.607Z,7.77
2018-05-27T13:03:55.805Z,8.20
2018-05-27T13:06:26.999Z,6.80
2018-05-27T13:08:58.279Z,14.43
2018-05-27T13:11:29.475Z,6.93
2018-05-27T13:14:01.397Z,7.43
2018-05-27T13:16:32.815Z,6.67
2018-05-27T13:19:03.971Z,6.93
2018-05-27T13:21:35.199Z,6.70
2018-05-27T13:24:06.643Z,12.33
2018-05-27T13:26:38.845Z,8.63
2018-05-27T13:29:10.048Z,7.30
2018-05-27T13:31:41.263Z,7.80
2018-05-27T13:34:13.219Z,6.90
2018-05-27T13:36:45.242Z,7.27
2018-05-27T13:39:17.970Z,8.07
2018-05-27T13:41:49.195Z,7.10
2018-05-27T13:44:20.407Z,7.00
2018-05-27T13:46:51.611Z,7.33
2018-05-27T13:49:22.864Z,6.33
2018-05-27T13:51:54.110Z,6.93
2018-05-27T13:54:25.322Z,7.00
2018-05-27T13:56:56.647Z,6.80
2018-05-27T13:59:28.061Z,6.77
2018-05-27T14:01:59.243Z,7.43
2018-05-27T14:04:30.446Z,7.93
2018-05-27T14:07:01.659Z,7.00
2018-05-27T14:09:32.911Z,7.80
2018-05-27T14:12:04.144Z,7.20
2018-05-27T14:14:36.067Z,7.83
2018-05-27T14:17:07.631Z,7.00
2018-05-27T14:19:38.822Z,6.87
2018-05-27T14:22:10.175Z,6.37
2018-05-27T14:24:41.366Z,6.53
2018-05-27T14:27:12.893Z,6.80
2018-05-27T14:29:45.076Z,6.40
2018-05-27T14:32:16.248Z,8.13
2018-05-27T14:34:48.210Z,6.63
2018-05-27T14:37:20.413Z,6.23
2018-05-27T14:39:51.591Z,7.53
2018-05-27T14:42:22.795Z,7.37
2018-05-27T14:44:54.150Z,8.47
2018-05-27T14:47:25.282Z,6.30
2018-05-27T14:49:56.735Z,6.83
2018-05-27T14:52:27.947Z,7.10
2018-05-27T14:54:59.185Z,7.40
2018-05-27T14:57:31.209Z,7.50
2018-05-27T15:00:02.603Z,7.23
2018-05-27T15:02:33.804Z,7.57
2018-05-27T15:05:05.165Z,7.63
2018-05-27T15:07:36.359Z,7.63
2018-05-27T15:10:07.703Z,8.40
2018-05-27T15:12:38.870Z,7.67
2018-05-27T15:15:10.487Z,7.97
2018-05-27T15:17:42.541Z,9.07
2018-05-27T15:20:14.508Z,8.53
2018-05-27T15:22:46.448Z,8.17
2018-05-27T15:25:17.665Z,7.87
2018-05-27T15:27:48.879Z,8.57
2018-05-27T15:30:20.326Z,7.77
2018-05-27T15:32:51.502Z,7.43
2018-05-27T15:35:22.707Z,8.43
2018-05-27T15:37:54.955Z,7.40
2018-05-27T15:40:26.900Z,7.80
2018-05-27T15:42:58.465Z,8.00
2018-05-27T15:45:30.483Z,7.67
2018-05-27T15:48:01.672Z,8.30
2018-05-27T15:50:33.761Z,7.03
2018-05-27T15:53:05.007Z,8.30
2018-05-27T15:55:37.020Z,8.30
2018-05-27T15:58:08.658Z,8.20
2018-05-27T16:00:39.826Z,9.27
2018-05-27T16:03:11.060Z,7.50
2018-05-27T16:05:42.232Z,7.37
2018-05-27T16:08:14.221Z,6.73
2018-05-27T16:10:45.403Z,7.00
2018-05-27T16:13:16.630Z,7.63
2018-05-27T16:15:47.834Z,6.93
2018-05-27T16:18:19.507Z,7.33
2018-05-27T16:20:50.723Z,7.77
2018-05-27T16:23:22.695Z,7.23
2018-05-27T16:25:53.987Z,6.90
2018-05-27T16:28:25.408Z,7.97
2018-05-27T16:30:56.592Z,7.60
2018-05-27T16:33:27.836Z,8.10
2018-05-27T16:35:59.018Z,7.90
2018-05-27T16:38:31.006Z,8.30
2018-05-27T16:41:02.228Z,7.73
2018-05-27T16:43:33.442Z,7.90
2018-05-27T16:46:04.812Z,7.90
2018-05-27T16:48:36.354Z,7.73
2018-05-27T16:51:09.069Z,7.00
2018-05-27T16:53:40.619Z,9.03
2018-05-27T16:56:11.858Z,8.27
2018-05-27T16:58:46.456Z,6.97
2018-05-27T17:01:17.926Z,7.60
2018-05-27T17:03:49.094Z,7.80
2018-05-27T17:06:20.320Z,7.37
2018-05-27T17:08:51.501Z,10.33
2018-05-27T17:11:22.734Z,7.17
2018-05-27T17:13:53.950Z,7.63
2018-05-27T17:16:25.237Z,7.40
2018-05-27T17:18:57.255Z,7.43
2018-05-27T17:21:28.492Z,8.17
2018-05-27T17:23:59.731Z,7.50
2018-05-27T17:26:31.807Z,7.57
2018-05-27T17:29:03.706Z,7.60
2018-05-27T17:31:34.922Z,7.43
2018-05-27T17:34:06.173Z,7.00
2018-05-27T17:36:37.514Z,7.73
2018-05-27T17:39:08.997Z,7.50
2018-05-27T17:41:40.260Z,8.17
2018-05-27T17:44:12.418Z,9.23
2018-05-27T17:46:44.459Z,8.07
2018-05-27T17:49:15.764Z,7.30
2018-05-27T17:51:47.385Z,7.70
2018-05-27T17:54:19.478Z,8.50
2018-05-27T17:56:52.359Z,8.10
2018-05-27T17:59:24.125Z,7.70
2018-05-27T18:01:55.439Z,8.23
2018-05-27T18:04:26.819Z,8.53
2018-05-27T18:06:58.204Z,7.67
2018-05-27T18:09:31.131Z,12.77
2018-05-27T18:12:02.515Z,8.60
2018-05-27T18:14:33.740Z,8.37
2018-05-27T18:17:05.136Z,7.63
2018-05-27T18:19:37.666Z,8.47
2018-05-27T18:22:09.051Z,10.50
2018-05-27T18:24:40.243Z,8.33
2018-05-27T18:27:12.306Z,9.07
2018-05-27T18:29:44.290Z,8.03
2018-05-27T18:32:15.670Z,8.37
2018-05-27T18:34:47.618Z,7.90
2018-05-27T18:37:18.867Z,9.53
2018-05-27T18:39:50.104Z,8.80
2018-05-27T18:42:21.658Z,8.33
2018-05-27T18:44:52.935Z,8.77
2018-05-27T18:47:24.930Z,7.97
2018-05-27T18:49:56.287Z,7.97
2018-05-27T18:52:27.838Z,8.73
2018-05-27T18:54:59.927Z,7.67
2018-05-27T18:57:31.630Z,8.50
2018-05-27T19:00:03.152Z,8.20
2018-05-27T19:02:35.459Z,9.20
2018-05-27T19:05:06.778Z,8.43
2018-05-27T19:07:39.135Z,9.10
2018-05-27T19:10:11.887Z,9.00
2018-05-27T19:12:43.154Z,9.50
2018-05-27T19:15:15.144Z,9.47
2018-05-27T19:17:46.487Z,9.13
2018-05-27T19:20:20.525Z,9.57
2018-05-27T19:22:52.038Z,9.90
2018-05-27T19:25:24.014Z,9.10
2018-05-27T19:27:55.224Z,9.40
2018-05-27T19:30:28.233Z,9.27
2018-05-27T19:33:00.613Z,9.13
2018-05-27T19:35:32.665Z,12.13
2018-05-27T19:38:03.914Z,9.67
2018-05-27T19:40:36.721Z,9.77
2018-05-27T19:43:08.301Z,9.27
2018-05-27T19:45:39.732Z,8.83
2018-05-27T19:48:10.963Z,9.77
2018-05-27T19:50:42.870Z,9.77
2018-05-27T19:53:14.251Z,9.60
2018-05-27T19:55:46.222Z,11.83
2018-05-27T19:58:18.215Z,10.47
2018-05-27T20:00:49.638Z,8.90
2018-05-27T20:03:21.763Z,12.10
2018-05-27T20:05:52.994Z,9.23
2018-05-27T20:08:25.827Z,9.77
2018-05-27T20:10:57.859Z,10.00
2018-05-27T20:13:32.834Z,10.93
2018-05-27T20:16:04.833Z,9.00
2018-05-27T20:18:36.143Z,9.50
2018-05-27T20:21:08.965Z,9.23
2018-05-27T20:23:40.268Z,8.33
2018-05-27T20:26:11.761Z,9.00
2018-05-27T20:28:43.110Z,9.50
2018-05-27T20:31:14.373Z,8.20
2018-05-27T20:33:45.695Z,8.23
2018-05-27T20:36:17.112Z,9.73
2018-05-27T20:38:48.743Z,8.87
2018-05-27T20:41:22.299Z,9.23
2018-05-27T20:43:53.708Z,8.37
2018-05-27T20:46:26.530Z,10.27
2018-05-27T20:48:58.622Z,8.93
2018-05-27T20:51:29.939Z,9.87
2018-05-27T20:54:01.475Z,11.07
2018-05-27T20:56:33.491Z,9.33
2018-05-27T20:59:06.660Z,8.50
2018-05-27T21:01:40.160Z,9.00
2018-05-27T21:04:11.872Z,8.73
2018-05-27T21:06:43.588Z,8.63
2018-05-27T21:09:15.616Z,11.17
2018-05-27T21:11:47.188Z,8.73
2018-05-27T21:14:18.492Z,9.67
2018-05-27T21:16:49.727Z,9.10
2018-05-27T21:19:22.054Z,10.63
2018-05-27T21:21:55.115Z,8.90
2018-05-27T21:24:26.517Z,9.73
2018-05-27T21:26:57.807Z,8.77
2018-05-27T21:29:30.308Z,8.37
2018-05-27T21:32:01.637Z,10.17
2018-05-27T21:34:32.974Z,9.30
2018-05-27T21:37:04.377Z,8.80
2018-05-27T21:39:36.364Z,9.77
2018-05-27T21:42:07.830Z,9.43
2018-05-27T21:44:39.056Z,9.93
2018-05-27T21:47:10.296Z,9.77
2018-05-27T21:49:42.018Z,8.97
2018-05-27T21:52:13.994Z,9.40
2018-05-27T21:54:46.325Z,9.77
2018-05-27T21:57:17.846Z,10.77
2018-05-27T21:59:49.083Z,9.73
2018-05-27T22:02:21.376Z,10.13
2018-05-27T22:04:52.570Z,11.20
2018-05-27T22:07:24.718Z,10.83
2018-05-27T22:09:56.710Z,10.33
2018-05-27T22:12:28.025Z,12.33
2018-05-27T22:15:00.153Z,11.87
2018-05-27T22:17:31.452Z,10.27
2018-05-27T22:20:02.703Z,10.77
2018-05-27T22:22:34.914Z,11.30
2018-05-27T22:25:06.978Z,11.73
2018-05-27T22:27:38.285Z,10.53
2018-05-27T22:30:10.215Z,12.53
2018-05-27T22:32:41.498Z,11.43
2018-05-27T22:35:13.438Z,12.70
2018-05-27T22:37:45.440Z,14.37
2018-05-27T22:40:16.730Z,11.63
2018-05-27T22:42:48.252Z,11.33
2018-05-27T22:45:19.504Z,12.70
2018-05-27T22:47:50.924Z,11.60
2018-05-27T22:50:22.233Z,12.90
2018-05-27T22:52:53.452Z,12.43
2018-05-27T22:55:24.905Z,14.13
2018-05-27T22:57:56.969Z,11.93
2018-05-27T23:00:28.195Z,12.73
2018-05-27T23:02:59.544Z,11.93
2018-05-27T23:05:30.854Z,13.97
2018-05-27T23:08:02.117Z,12.73
2018-05-27T23:10:33.475Z,13.33
2018-05-27T23:13:04.697Z,12.80
2018-05-27T23:15:35.915Z,12.23
2018-05-27T23:18:07.839Z,12.70
2018-05-27T23:20:39.083Z,13.40
2018-05-27T23:23:11.598Z,12.70
2018-05-27T23:25:42.780Z,13.63
2018-05-27T23:28:14.027Z,12.13
2018-05-27T23:30:45.191Z,13.93
2018-05-27T23:33:16.707Z,14.10
2018-05-27T23:35:47.970Z,13.67
2018-05-27T23:38:19.668Z,13.17
2018-05-27T23:40:51.579Z,13.70
2018-05-27T23:43:22.849Z,13.47
2018-05-27T23:45:54.086Z,13.90
2018-05-27T23:48:25.500Z,16.50
2018-05-27T23:50:56.723Z,14.10
2018-05-27T23:53:29.025Z,14.53
2018-05-27T23:56:00.241Z,13.53
2018-05-27T23:58:32.218Z,14.37
